sensor_id;sensor_type;location;lat;lon;timestamp;P1;durP1;ratioP1;P2;durP2;ratioP2
1699;SDS011;847;48.058;7.810;2023-04-12T00:01:30;3.93;;;1.83;;
1699;SDS011;847;48.058;7.810;2023-04-12T00:03:57;2.83;;;1.73;;
1699;SDS011;847;48.058;7.810;2023-04-12T00:06:28;2.73;;;1.73;;
1699;SDS011;847;48.058;7.810;2023-04-12T00:08:57;3.83;;;2.37;;
1699;SDS011;847;48.058;7.810;2023-04-12T00:11:24;3.90;;;2.13;;
1699;SDS011;847;48.058;7.810;2023-04-12T00:13:51;5.73;;;1.97;;
1699;SDS011;847;48.058;7.810;2023-04-12T00:16:18;3.30;;;1.63;;
1699;SDS011;847;48.058;7.810;2023-04-12T00:18:46;3.90;;;2.00;;
1699;SDS011;847;48.058;7.810;2023-04-12T00:21:13;2.57;;;1.40;;
1699;SDS011;847;48.058;7.810;2023-04-12T00:23:43;2.97;;;1.70;;
1699;SDS011;847;48.058;7.810;2023-04-12T00:26:11;4.20;;;1.90;;
1699;SDS011;847;48.058;7.810;2023-04-12T00:28:38;3.53;;;1.83;;
1699;SDS011;847;48.058;7.810;2023-04-12T00:31:05;4.87;;;2.03;;
1699;SDS011;847;48.058;7.810;2023-04-12T00:33:32;4.57;;;1.63;;
1699;SDS011;847;48.058;7.810;2023-04-12T00:36:00;5.87;;;2.60;;
1699;SDS011;847;48.058;7.810;2023-04-12T00:38:27;2.03;;;1.67;;
1699;SDS011;847;48.058;7.810;2023-04-12T00:40:54;2.70;;;1.70;;
1699;SDS011;847;48.058;7.810;2023-04-12T00:43:21;3.53;;;1.70;;
1699;SDS011;847;48.058;7.810;2023-04-12T00:45:51;4.33;;;1.87;;
1699;SDS011;847;48.058;7.810;2023-04-12T00:48:21;3.63;;;1.47;;
1699;SDS011;847;48.058;7.810;2023-04-12T00:50:48;2.57;;;1.83;;
1699;SDS011;847;48.058;7.810;2023-04-12T00:53:16;2.50;;;1.70;;
1699;SDS011;847;48.058;7.810;2023-04-12T00:55:44;3.87;;;2.60;;
1699;SDS011;847;48.058;7.810;2023-04-12T00:58:12;2.63;;;1.37;;
1699;SDS011;847;48.058;7.810;2023-04-12T01:00:39;3.10;;;1.80;;
1699;SDS011;847;48.058;7.810;2023-04-12T01:03:05;2.80;;;1.70;;
1699;SDS011;847;48.058;7.810;2023-04-12T01:05:34;4.17;;;1.70;;
1699;SDS011;847;48.058;7.810;2023-04-12T01:08:12;2.87;;;1.90;;
1699;SDS011;847;48.058;7.810;2023-04-12T01:10:48;2.60;;;1.40;;
1699;SDS011;847;48.058;7.810;2023-04-12T01:13:23;1.50;;;1.40;;
1699;SDS011;847;48.058;7.810;2023-04-12T01:15:57;1.73;;;1.50;;
1699;SDS011;847;48.058;7.810;2023-04-12T01:18:29;1.60;;;1.37;;
1699;SDS011;847;48.058;7.810;2023-04-12T01:21:05;3.37;;;1.77;;
1699;SDS011;847;48.058;7.810;2023-04-12T01:23:47;2.60;;;1.30;;
1699;SDS011;847;48.058;7.810;2023-04-12T01:29:11;2.03;;;1.20;;
1699;SDS011;847;48.058;7.810;2023-04-12T01:31:50;1.77;;;1.30;;
1699;SDS011;847;48.058;7.810;2023-04-12T01:34:20;2.30;;;1.40;;
1699;SDS011;847;48.058;7.810;2023-04-12T01:36:50;4.60;;;1.80;;
1699;SDS011;847;48.058;7.810;2023-04-12T01:39:17;2.13;;;1.30;;
1699;SDS011;847;48.058;7.810;2023-04-12T01:41:45;1.50;;;1.20;;
1699;SDS011;847;48.058;7.810;2023-04-12T01:44:14;2.37;;;1.70;;
1699;SDS011;847;48.058;7.810;2023-04-12T01:46:42;2.63;;;1.67;;
1699;SDS011;847;48.058;7.810;2023-04-12T01:49:10;4.60;;;1.63;;
1699;SDS011;847;48.058;7.810;2023-04-12T01:51:41;1.97;;;1.30;;
1699;SDS011;847;48.058;7.810;2023-04-12T01:54:16;4.90;;;1.63;;
1699;SDS011;847;48.058;7.810;2023-04-12T01:56:48;3.80;;;1.70;;
1699;SDS011;847;48.058;7.810;2023-04-12T01:59:23;2.30;;;1.67;;
1699;SDS011;847;48.058;7.810;2023-04-12T02:01:53;2.43;;;1.57;;
1699;SDS011;847;48.058;7.810;2023-04-12T02:04:20;2.00;;;1.30;;
1699;SDS011;847;48.058;7.810;2023-04-12T02:06:49;2.03;;;1.47;;
1699;SDS011;847;48.058;7.810;2023-04-12T02:09:16;2.63;;;1.80;;
1699;SDS011;847;48.058;7.810;2023-04-12T02:11:45;2.50;;;1.10;;
1699;SDS011;847;48.058;7.810;2023-04-12T02:14:13;3.00;;;1.40;;
1699;SDS011;847;48.058;7.810;2023-04-12T02:16:41;2.33;;;1.50;;
1699;SDS011;847;48.058;7.810;2023-04-12T02:19:09;5.53;;;1.60;;
1699;SDS011;847;48.058;7.810;2023-04-12T02:21:39;1.50;;;1.40;;
1699;SDS011;847;48.058;7.810;2023-04-12T02:24:07;2.97;;;1.90;;
1699;SDS011;847;48.058;7.810;2023-04-12T02:26:33;3.97;;;1.60;;
1699;SDS011;847;48.058;7.810;2023-04-12T02:29:01;3.77;;;1.70;;
1699;SDS011;847;48.058;7.810;2023-04-12T02:31:28;2.90;;;1.53;;
1699;SDS011;847;48.058;7.810;2023-04-12T02:33:56;3.80;;;1.93;;
1699;SDS011;847;48.058;7.810;2023-04-12T02:36:23;3.17;;;1.63;;
1699;SDS011;847;48.058;7.810;2023-04-12T02:38:50;2.20;;;1.60;;
1699;SDS011;847;48.058;7.810;2023-04-12T02:41:17;5.13;;;1.70;;
1699;SDS011;847;48.058;7.810;2023-04-12T02:43:44;3.23;;;1.67;;
1699;SDS011;847;48.058;7.810;2023-04-12T02:46:13;4.67;;;2.33;;
1699;SDS011;847;48.058;7.810;2023-04-12T02:48:41;2.10;;;1.50;;
1699;SDS011;847;48.058;7.810;2023-04-12T02:51:10;3.03;;;1.60;;
1699;SDS011;847;48.058;7.810;2023-04-12T02:53:36;2.60;;;2.10;;
1699;SDS011;847;48.058;7.810;2023-04-12T02:56:03;3.30;;;2.00;;
1699;SDS011;847;48.058;7.810;2023-04-12T02:58:31;2.63;;;1.60;;
1699;SDS011;847;48.058;7.810;2023-04-12T03:00:58;4.47;;;1.60;;
1699;SDS011;847;48.058;7.810;2023-04-12T03:03:25;2.83;;;1.63;;
1699;SDS011;847;48.058;7.810;2023-04-12T03:05:55;5.03;;;1.93;;
1699;SDS011;847;48.058;7.810;2023-04-12T03:08:24;6.07;;;1.60;;
1699;SDS011;847;48.058;7.810;2023-04-12T03:10:50;2.63;;;1.83;;
1699;SDS011;847;48.058;7.810;2023-04-12T03:13:17;4.00;;;1.60;;
1699;SDS011;847;48.058;7.810;2023-04-12T03:18:11;3.43;;;1.70;;
1699;SDS011;847;48.058;7.810;2023-04-12T03:20:38;3.07;;;1.50;;
1699;SDS011;847;48.058;7.810;2023-04-12T03:23:05;2.63;;;1.43;;
1699;SDS011;847;48.058;7.810;2023-04-12T03:25:33;5.93;;;2.43;;
1699;SDS011;847;48.058;7.810;2023-04-12T03:28:01;2.73;;;1.60;;
1699;SDS011;847;48.058;7.810;2023-04-12T03:30:28;2.10;;;1.90;;
1699;SDS011;847;48.058;7.810;2023-04-12T03:32:55;2.50;;;1.83;;
1699;SDS011;847;48.058;7.810;2023-04-12T03:35:21;4.07;;;2.10;;
1699;SDS011;847;48.058;7.810;2023-04-12T03:37:48;1.87;;;1.67;;
1699;SDS011;847;48.058;7.810;2023-04-12T03:40:15;3.67;;;2.03;;
1699;SDS011;847;48.058;7.810;2023-04-12T03:42:43;3.50;;;1.97;;
1699;SDS011;847;48.058;7.810;2023-04-12T03:45:10;4.70;;;2.10;;
1699;SDS011;847;48.058;7.810;2023-04-12T03:47:37;4.10;;;1.90;;
1699;SDS011;847;48.058;7.810;2023-04-12T03:50:04;6.67;;;2.10;;
1699;SDS011;847;48.058;7.810;2023-04-12T03:52:34;3.33;;;1.63;;
1699;SDS011;847;48.058;7.810;2023-04-12T03:55:01;5.30;;;2.57;;
1699;SDS011;847;48.058;7.810;2023-04-12T03:57:29;4.07;;;1.80;;
1699;SDS011;847;48.058;7.810;2023-04-12T03:59:57;3.60;;;1.80;;
1699;SDS011;847;48.058;7.810;2023-04-12T04:02:25;2.47;;;2.27;;
1699;SDS011;847;48.058;7.810;2023-04-12T04:04:52;2.30;;;1.70;;
1699;SDS011;847;48.058;7.810;2023-04-12T04:07:18;3.07;;;2.03;;
1699;SDS011;847;48.058;7.810;2023-04-12T04:09:45;3.97;;;2.60;;
1699;SDS011;847;48.058;7.810;2023-04-12T04:12:13;5.03;;;2.57;;
1699;SDS011;847;48.058;7.810;2023-04-12T04:14:40;3.73;;;2.70;;
1699;SDS011;847;48.058;7.810;2023-04-12T04:17:08;5.27;;;2.90;;
1699;SDS011;847;48.058;7.810;2023-04-12T04:19:35;4.93;;;1.80;;
1699;SDS011;847;48.058;7.810;2023-04-12T04:22:02;3.60;;;2.23;;
1699;SDS011;847;48.058;7.810;2023-04-12T04:24:28;5.30;;;2.50;;
1699;SDS011;847;48.058;7.810;2023-04-12T04:26:55;3.20;;;2.43;;
1699;SDS011;847;48.058;7.810;2023-04-12T04:29:22;2.30;;;2.10;;
1699;SDS011;847;48.058;7.810;2023-04-12T04:31:50;3.83;;;2.40;;
1699;SDS011;847;48.058;7.810;2023-04-12T04:34:19;3.20;;;2.47;;
1699;SDS011;847;48.058;7.810;2023-04-12T04:36:47;4.70;;;2.17;;
1699;SDS011;847;48.058;7.810;2023-04-12T04:39:14;7.30;;;2.10;;
1699;SDS011;847;48.058;7.810;2023-04-12T04:41:41;3.77;;;2.37;;
1699;SDS011;847;48.058;7.810;2023-04-12T04:44:08;4.13;;;2.37;;
1699;SDS011;847;48.058;7.810;2023-04-12T04:46:35;2.70;;;2.40;;
1699;SDS011;847;48.058;7.810;2023-04-12T04:49:03;5.77;;;5.13;;
1699;SDS011;847;48.058;7.810;2023-04-12T04:51:31;3.57;;;2.60;;
1699;SDS011;847;48.058;7.810;2023-04-12T04:53:58;3.33;;;2.27;;
1699;SDS011;847;48.058;7.810;2023-04-12T04:56:26;3.50;;;2.37;;
1699;SDS011;847;48.058;7.810;2023-04-12T04:58:53;4.40;;;3.10;;
1699;SDS011;847;48.058;7.810;2023-04-12T05:01:19;4.17;;;3.77;;
1699;SDS011;847;48.058;7.810;2023-04-12T05:03:49;7.40;;;5.60;;
1699;SDS011;847;48.058;7.810;2023-04-12T05:06:20;6.07;;;4.90;;
1699;SDS011;847;48.058;7.810;2023-04-12T05:08:49;5.63;;;4.67;;
1699;SDS011;847;48.058;7.810;2023-04-12T05:11:16;4.60;;;3.67;;
1699;SDS011;847;48.058;7.810;2023-04-12T05:13:43;5.53;;;3.60;;
1699;SDS011;847;48.058;7.810;2023-04-12T05:16:10;5.30;;;2.70;;
1699;SDS011;847;48.058;7.810;2023-04-12T05:18:39;3.50;;;2.53;;
1699;SDS011;847;48.058;7.810;2023-04-12T05:21:05;4.53;;;2.77;;
1699;SDS011;847;48.058;7.810;2023-04-12T05:23:33;2.70;;;2.37;;
1699;SDS011;847;48.058;7.810;2023-04-12T05:26:03;5.90;;;3.47;;
1699;SDS011;847;48.058;7.810;2023-04-12T05:28:30;4.70;;;3.90;;
1699;SDS011;847;48.058;7.810;2023-04-12T05:30:57;3.50;;;2.67;;
1699;SDS011;847;48.058;7.810;2023-04-12T05:33:24;3.43;;;2.50;;
1699;SDS011;847;48.058;7.810;2023-04-12T05:35:51;4.57;;;3.40;;
1699;SDS011;847;48.058;7.810;2023-04-12T05:38:17;5.87;;;2.73;;
1699;SDS011;847;48.058;7.810;2023-04-12T05:40:45;7.40;;;2.67;;
1699;SDS011;847;48.058;7.810;2023-04-12T05:43:15;6.13;;;3.10;;
1699;SDS011;847;48.058;7.810;2023-04-12T05:45:42;3.77;;;3.30;;
1699;SDS011;847;48.058;7.810;2023-04-12T05:48:09;5.27;;;3.50;;
1699;SDS011;847;48.058;7.810;2023-04-12T05:50:35;3.70;;;2.77;;
1699;SDS011;847;48.058;7.810;2023-04-12T05:53:02;5.17;;;3.97;;
1699;SDS011;847;48.058;7.810;2023-04-12T05:55:29;6.60;;;2.60;;
1699;SDS011;847;48.058;7.810;2023-04-12T05:57:56;3.77;;;2.73;;
1699;SDS011;847;48.058;7.810;2023-04-12T06:00:24;3.63;;;3.33;;
1699;SDS011;847;48.058;7.810;2023-04-12T06:02:51;7.00;;;3.90;;
1699;SDS011;847;48.058;7.810;2023-04-12T06:05:19;5.40;;;3.10;;
1699;SDS011;847;48.058;7.810;2023-04-12T06:07:46;4.97;;;3.43;;
1699;SDS011;847;48.058;7.810;2023-04-12T06:10:14;3.93;;;3.50;;
1699;SDS011;847;48.058;7.810;2023-04-12T06:12:41;4.70;;;3.27;;
1699;SDS011;847;48.058;7.810;2023-04-12T06:15:08;3.53;;;3.20;;
1699;SDS011;847;48.058;7.810;2023-04-12T06:17:37;4.40;;;3.23;;
1699;SDS011;847;48.058;7.810;2023-04-12T06:20:04;3.70;;;2.37;;
1699;SDS011;847;48.058;7.810;2023-04-12T06:22:33;3.27;;;2.70;;
1699;SDS011;847;48.058;7.810;2023-04-12T06:25:00;4.70;;;3.00;;
1699;SDS011;847;48.058;7.810;2023-04-12T06:27:27;4.20;;;2.87;;
1699;SDS011;847;48.058;7.810;2023-04-12T06:29:54;3.27;;;2.97;;
1699;SDS011;847;48.058;7.810;2023-04-12T06:32:21;6.50;;;3.13;;
1699;SDS011;847;48.058;7.810;2023-04-12T06:34:49;3.13;;;2.40;;
1699;SDS011;847;48.058;7.810;2023-04-12T06:37:16;5.90;;;2.53;;
1699;SDS011;847;48.058;7.810;2023-04-12T06:39:43;5.60;;;2.40;;
1699;SDS011;847;48.058;7.810;2023-04-12T06:42:10;4.90;;;2.47;;
1699;SDS011;847;48.058;7.810;2023-04-12T06:44:36;12.17;;;3.13;;
1699;SDS011;847;48.058;7.810;2023-04-12T06:47:03;3.80;;;2.80;;
1699;SDS011;847;48.058;7.810;2023-04-12T06:49:30;5.17;;;3.07;;
1699;SDS011;847;48.058;7.810;2023-04-12T06:51:58;4.17;;;2.90;;
1699;SDS011;847;48.058;7.810;2023-04-12T06:54:25;11.83;;;3.93;;
1699;SDS011;847;48.058;7.810;2023-04-12T06:56:52;13.73;;;4.20;;
1699;SDS011;847;48.058;7.810;2023-04-12T06:59:18;39.40;;;8.83;;
1699;SDS011;847;48.058;7.810;2023-04-12T07:01:45;18.80;;;4.50;;
1699;SDS011;847;48.058;7.810;2023-04-12T07:04:12;32.77;;;6.23;;
1699;SDS011;847;48.058;7.810;2023-04-12T07:06:40;11.17;;;4.57;;
1699;SDS011;847;48.058;7.810;2023-04-12T07:09:09;4.80;;;3.00;;
1699;SDS011;847;48.058;7.810;2023-04-12T07:11:35;4.43;;;3.00;;
1699;SDS011;847;48.058;7.810;2023-04-12T07:14:02;4.23;;;2.67;;
1699;SDS011;847;48.058;7.810;2023-04-12T07:16:29;4.03;;;3.00;;
1699;SDS011;847;48.058;7.810;2023-04-12T07:18:56;4.83;;;4.00;;
1699;SDS011;847;48.058;7.810;2023-04-12T07:21:23;4.47;;;3.60;;
1699;SDS011;847;48.058;7.810;2023-04-12T07:23:51;5.20;;;4.10;;
1699;SDS011;847;48.058;7.810;2023-04-12T07:26:19;6.50;;;3.80;;
1699;SDS011;847;48.058;7.810;2023-04-12T07:28:46;6.43;;;3.53;;
1699;SDS011;847;48.058;7.810;2023-04-12T07:31:13;5.43;;;3.40;;
1699;SDS011;847;48.058;7.810;2023-04-12T07:33:40;5.37;;;3.00;;
1699;SDS011;847;48.058;7.810;2023-04-12T07:36:07;4.20;;;2.53;;
1699;SDS011;847;48.058;7.810;2023-04-12T07:38:34;5.07;;;3.03;;
1699;SDS011;847;48.058;7.810;2023-04-12T07:41:01;3.80;;;2.43;;
1699;SDS011;847;48.058;7.810;2023-04-12T07:43:29;4.93;;;2.50;;
1699;SDS011;847;48.058;7.810;2023-04-12T07:45:55;3.57;;;2.80;;
1699;SDS011;847;48.058;7.810;2023-04-12T07:48:22;2.90;;;2.20;;
1699;SDS011;847;48.058;7.810;2023-04-12T07:50:51;3.17;;;2.27;;
1699;SDS011;847;48.058;7.810;2023-04-12T07:53:18;3.87;;;2.90;;
1699;SDS011;847;48.058;7.810;2023-04-12T07:55:45;6.37;;;2.70;;
1699;SDS011;847;48.058;7.810;2023-04-12T07:58:12;2.93;;;2.00;;
1699;SDS011;847;48.058;7.810;2023-04-12T08:00:41;3.90;;;2.47;;
1699;SDS011;847;48.058;7.810;2023-04-12T08:03:10;4.97;;;2.67;;
1699;SDS011;847;48.058;7.810;2023-04-12T08:05:37;4.53;;;2.60;;
1699;SDS011;847;48.058;7.810;2023-04-12T08:08:04;2.30;;;2.10;;
1699;SDS011;847;48.058;7.810;2023-04-12T08:10:33;3.17;;;2.17;;
1699;SDS011;847;48.058;7.810;2023-04-12T08:13:00;2.90;;;2.10;;
1699;SDS011;847;48.058;7.810;2023-04-12T08:15:27;3.07;;;1.70;;
1699;SDS011;847;48.058;7.810;2023-04-12T08:17:55;1.97;;;1.43;;
1699;SDS011;847;48.058;7.810;2023-04-12T08:20:22;3.13;;;1.70;;
1699;SDS011;847;48.058;7.810;2023-04-12T08:22:49;7.40;;;1.93;;
1699;SDS011;847;48.058;7.810;2023-04-12T08:25:16;3.03;;;1.53;;
1699;SDS011;847;48.058;7.810;2023-04-12T08:27:44;2.50;;;1.60;;
1699;SDS011;847;48.058;7.810;2023-04-12T08:30:11;5.60;;;2.10;;
1699;SDS011;847;48.058;7.810;2023-04-12T08:32:38;3.07;;;2.00;;
1699;SDS011;847;48.058;7.810;2023-04-12T08:35:07;3.10;;;2.00;;
1699;SDS011;847;48.058;7.810;2023-04-12T08:37:35;4.50;;;2.20;;
1699;SDS011;847;48.058;7.810;2023-04-12T08:40:02;4.23;;;2.00;;
1699;SDS011;847;48.058;7.810;2023-04-12T08:42:32;2.60;;;2.13;;
1699;SDS011;847;48.058;7.810;2023-04-12T08:45:03;4.60;;;1.80;;
1699;SDS011;847;48.058;7.810;2023-04-12T08:47:31;8.33;;;3.70;;
1699;SDS011;847;48.058;7.810;2023-04-12T08:49:59;3.90;;;2.80;;
1699;SDS011;847;48.058;7.810;2023-04-12T08:52:29;3.53;;;1.90;;
1699;SDS011;847;48.058;7.810;2023-04-12T08:55:00;2.67;;;1.97;;
1699;SDS011;847;48.058;7.810;2023-04-12T08:57:27;4.30;;;3.03;;
1699;SDS011;847;48.058;7.810;2023-04-12T08:59:54;3.70;;;2.80;;
1699;SDS011;847;48.058;7.810;2023-04-12T09:02:23;2.80;;;2.23;;
1699;SDS011;847;48.058;7.810;2023-04-12T09:04:50;3.77;;;2.20;;
1699;SDS011;847;48.058;7.810;2023-04-12T09:07:17;3.73;;;2.67;;
1699;SDS011;847;48.058;7.810;2023-04-12T09:09:48;5.03;;;2.57;;
1699;SDS011;847;48.058;7.810;2023-04-12T09:12:16;5.20;;;2.30;;
1699;SDS011;847;48.058;7.810;2023-04-12T09:14:44;3.10;;;1.83;;
1699;SDS011;847;48.058;7.810;2023-04-12T09:17:21;3.83;;;2.30;;
1699;SDS011;847;48.058;7.810;2023-04-12T09:19:49;2.40;;;1.90;;
1699;SDS011;847;48.058;7.810;2023-04-12T09:22:16;6.53;;;2.20;;
1699;SDS011;847;48.058;7.810;2023-04-12T09:24:46;3.10;;;2.43;;
1699;SDS011;847;48.058;7.810;2023-04-12T09:27:16;4.73;;;2.20;;
1699;SDS011;847;48.058;7.810;2023-04-12T09:29:45;3.20;;;1.97;;
1699;SDS011;847;48.058;7.810;2023-04-12T09:32:15;2.87;;;2.00;;
1699;SDS011;847;48.058;7.810;2023-04-12T09:34:53;6.80;;;2.43;;
1699;SDS011;847;48.058;7.810;2023-04-12T09:37:21;3.27;;;2.03;;
1699;SDS011;847;48.058;7.810;2023-04-12T09:39:49;3.00;;;2.30;;
1699;SDS011;847;48.058;7.810;2023-04-12T09:42:25;6.97;;;2.50;;
1699;SDS011;847;48.058;7.810;2023-04-12T09:44:52;2.67;;;2.37;;
1699;SDS011;847;48.058;7.810;2023-04-12T09:47:19;2.43;;;2.10;;
1699;SDS011;847;48.058;7.810;2023-04-12T09:49:46;5.50;;;2.30;;
1699;SDS011;847;48.058;7.810;2023-04-12T09:52:13;4.67;;;2.57;;
1699;SDS011;847;48.058;7.810;2023-04-12T09:54:41;5.20;;;2.33;;
1699;SDS011;847;48.058;7.810;2023-04-12T09:57:09;5.00;;;2.20;;
1699;SDS011;847;48.058;7.810;2023-04-12T09:59:39;5.47;;;1.97;;
1699;SDS011;847;48.058;7.810;2023-04-12T10:02:08;3.60;;;2.40;;
1699;SDS011;847;48.058;7.810;2023-04-12T10:04:39;4.30;;;2.57;;
1699;SDS011;847;48.058;7.810;2023-04-12T10:07:07;2.83;;;2.30;;
1699;SDS011;847;48.058;7.810;2023-04-12T10:09:37;5.37;;;2.53;;
1699;SDS011;847;48.058;7.810;2023-04-12T10:12:05;3.10;;;2.10;;
1699;SDS011;847;48.058;7.810;2023-04-12T10:14:33;4.30;;;2.43;;
1699;SDS011;847;48.058;7.810;2023-04-12T10:17:02;3.70;;;2.27;;
1699;SDS011;847;48.058;7.810;2023-04-12T10:19:30;4.03;;;2.10;;
1699;SDS011;847;48.058;7.810;2023-04-12T10:21:58;3.00;;;2.60;;
1699;SDS011;847;48.058;7.810;2023-04-12T10:24:26;3.60;;;2.40;;
1699;SDS011;847;48.058;7.810;2023-04-12T10:26:54;3.07;;;2.27;;
1699;SDS011;847;48.058;7.810;2023-04-12T10:29:24;3.43;;;2.57;;
1699;SDS011;847;48.058;7.810;2023-04-12T10:31:52;3.20;;;2.40;;
1699;SDS011;847;48.058;7.810;2023-04-12T10:34:23;10.97;;;6.00;;
1699;SDS011;847;48.058;7.810;2023-04-12T10:36:53;4.90;;;2.73;;
1699;SDS011;847;48.058;7.810;2023-04-12T10:39:34;4.87;;;2.20;;
1699;SDS011;847;48.058;7.810;2023-04-12T10:44:54;3.93;;;1.93;;
1699;SDS011;847;48.058;7.810;2023-04-12T10:50:27;4.47;;;2.10;;
1699;SDS011;847;48.058;7.810;2023-04-12T10:55:46;2.37;;;1.67;;
1699;SDS011;847;48.058;7.810;2023-04-12T11:01:22;3.53;;;2.03;;
1699;SDS011;847;48.058;7.810;2023-04-12T11:04:08;2.60;;;2.10;;
1699;SDS011;847;48.058;7.810;2023-04-12T11:06:41;2.00;;;1.70;;
1699;SDS011;847;48.058;7.810;2023-04-12T11:09:18;4.07;;;1.97;;
1699;SDS011;847;48.058;7.810;2023-04-12T11:11:46;2.57;;;1.73;;
1699;SDS011;847;48.058;7.810;2023-04-12T11:14:14;4.17;;;2.10;;
1699;SDS011;847;48.058;7.810;2023-04-12T11:19:48;3.03;;;2.20;;
1699;SDS011;847;48.058;7.810;2023-04-12T11:22:18;3.70;;;1.80;;
1699;SDS011;847;48.058;7.810;2023-04-12T11:24:46;2.70;;;2.20;;
1699;SDS011;847;48.058;7.810;2023-04-12T11:27:15;3.93;;;1.80;;
1699;SDS011;847;48.058;7.810;2023-04-12T11:29:42;3.20;;;2.03;;
1699;SDS011;847;48.058;7.810;2023-04-12T11:32:10;6.40;;;1.80;;
1699;SDS011;847;48.058;7.810;2023-04-12T11:34:38;2.30;;;1.50;;
1699;SDS011;847;48.058;7.810;2023-04-12T11:37:06;4.70;;;2.10;;
1699;SDS011;847;48.058;7.810;2023-04-12T11:39:37;3.73;;;2.33;;
1699;SDS011;847;48.058;7.810;2023-04-12T11:42:05;3.17;;;1.50;;
1699;SDS011;847;48.058;7.810;2023-04-12T11:44:33;2.97;;;1.67;;
1699;SDS011;847;48.058;7.810;2023-04-12T11:47:01;2.90;;;1.80;;
1699;SDS011;847;48.058;7.810;2023-04-12T11:49:29;2.03;;;1.57;;
1699;SDS011;847;48.058;7.810;2023-04-12T11:52:01;3.00;;;1.40;;
1699;SDS011;847;48.058;7.810;2023-04-12T11:54:29;3.43;;;1.30;;
1699;SDS011;847;48.058;7.810;2023-04-12T11:57:00;2.47;;;1.50;;
1699;SDS011;847;48.058;7.810;2023-04-12T11:59:30;3.10;;;1.60;;
1699;SDS011;847;48.058;7.810;2023-04-12T12:01:58;3.23;;;1.40;;
1699;SDS011;847;48.058;7.810;2023-04-12T12:04:26;2.80;;;1.37;;
1699;SDS011;847;48.058;7.810;2023-04-12T12:06:54;2.13;;;1.40;;
1699;SDS011;847;48.058;7.810;2023-04-12T12:09:21;3.00;;;1.60;;
1699;SDS011;847;48.058;7.810;2023-04-12T12:11:48;3.77;;;1.70;;
1699;SDS011;847;48.058;7.810;2023-04-12T12:14:21;1.77;;;1.20;;
1699;SDS011;847;48.058;7.810;2023-04-12T12:16:51;2.33;;;1.63;;
1699;SDS011;847;48.058;7.810;2023-04-12T12:19:25;7.10;;;4.40;;
1699;SDS011;847;48.058;7.810;2023-04-12T12:21:53;3.30;;;1.93;;
1699;SDS011;847;48.058;7.810;2023-04-12T12:24:21;2.70;;;2.03;;
1699;SDS011;847;48.058;7.810;2023-04-12T12:26:48;2.33;;;1.50;;
1699;SDS011;847;48.058;7.810;2023-04-12T12:29:15;3.17;;;1.30;;
1699;SDS011;847;48.058;7.810;2023-04-12T12:31:45;1.33;;;1.23;;
1699;SDS011;847;48.058;7.810;2023-04-12T12:34:13;1.03;;;0.93;;
1699;SDS011;847;48.058;7.810;2023-04-12T12:36:43;1.60;;;1.33;;
1699;SDS011;847;48.058;7.810;2023-04-12T12:39:19;1.83;;;1.30;;
1699;SDS011;847;48.058;7.810;2023-04-12T12:41:51;2.60;;;1.80;;
1699;SDS011;847;48.058;7.810;2023-04-12T12:44:19;1.30;;;1.20;;
1699;SDS011;847;48.058;7.810;2023-04-12T12:46:47;2.10;;;1.43;;
1699;SDS011;847;48.058;7.810;2023-04-12T12:49:14;2.13;;;1.20;;
1699;SDS011;847;48.058;7.810;2023-04-12T12:51:41;2.20;;;0.90;;
1699;SDS011;847;48.058;7.810;2023-04-12T12:54:08;2.00;;;1.50;;
1699;SDS011;847;48.058;7.810;2023-04-12T12:56:35;2.50;;;1.20;;
1699;SDS011;847;48.058;7.810;2023-04-12T12:59:02;1.33;;;1.23;;
1699;SDS011;847;48.058;7.810;2023-04-12T13:01:28;1.10;;;0.90;;
1699;SDS011;847;48.058;7.810;2023-04-12T13:03:57;1.63;;;1.10;;
1699;SDS011;847;48.058;7.810;2023-04-12T13:06:23;1.40;;;1.30;;
1699;SDS011;847;48.058;7.810;2023-04-12T13:08:52;4.73;;;1.60;;
1699;SDS011;847;48.058;7.810;2023-04-12T13:11:19;1.67;;;1.40;;
1699;SDS011;847;48.058;7.810;2023-04-12T13:13:46;2.20;;;1.30;;
1699;SDS011;847;48.058;7.810;2023-04-12T13:16:13;1.30;;;0.97;;
1699;SDS011;847;48.058;7.810;2023-04-12T13:18:40;2.70;;;1.83;;
1699;SDS011;847;48.058;7.810;2023-04-12T13:21:09;1.37;;;1.27;;
1699;SDS011;847;48.058;7.810;2023-04-12T13:23:36;1.03;;;0.70;;
1699;SDS011;847;48.058;7.810;2023-04-12T13:26:02;0.87;;;0.80;;
1699;SDS011;847;48.058;7.810;2023-04-12T13:28:30;1.20;;;1.10;;
1699;SDS011;847;48.058;7.810;2023-04-12T13:30:56;1.60;;;1.10;;
1699;SDS011;847;48.058;7.810;2023-04-12T13:33:23;1.30;;;0.90;;
1699;SDS011;847;48.058;7.810;2023-04-12T13:35:50;1.10;;;1.00;;
1699;SDS011;847;48.058;7.810;2023-04-12T13:38:18;1.00;;;1.00;;
1699;SDS011;847;48.058;7.810;2023-04-12T13:40:45;2.80;;;1.10;;
1699;SDS011;847;48.058;7.810;2023-04-12T13:43:11;1.50;;;1.10;;
1699;SDS011;847;48.058;7.810;2023-04-12T13:45:38;1.00;;;0.90;;
1699;SDS011;847;48.058;7.810;2023-04-12T13:48:05;3.13;;;1.20;;
1699;SDS011;847;48.058;7.810;2023-04-12T13:50:32;2.03;;;1.60;;
1699;SDS011;847;48.058;7.810;2023-04-12T13:52:59;1.80;;;1.10;;
1699;SDS011;847;48.058;7.810;2023-04-12T13:55:27;1.00;;;0.77;;
1699;SDS011;847;48.058;7.810;2023-04-12T13:57:54;1.20;;;1.00;;
1699;SDS011;847;48.058;7.810;2023-04-12T14:00:20;1.97;;;1.07;;
1699;SDS011;847;48.058;7.810;2023-04-12T14:02:48;1.10;;;0.80;;
1699;SDS011;847;48.058;7.810;2023-04-12T14:05:14;1.33;;;0.97;;
1699;SDS011;847;48.058;7.810;2023-04-12T14:07:41;1.57;;;0.87;;
1699;SDS011;847;48.058;7.810;2023-04-12T14:10:08;1.27;;;0.83;;
1699;SDS011;847;48.058;7.810;2023-04-12T14:12:37;2.23;;;1.30;;
1699;SDS011;847;48.058;7.810;2023-04-12T14:15:04;2.83;;;1.20;;
1699;SDS011;847;48.058;7.810;2023-04-12T14:17:32;3.00;;;0.87;;
1699;SDS011;847;48.058;7.810;2023-04-12T14:19:59;1.53;;;0.80;;
1699;SDS011;847;48.058;7.810;2023-04-12T14:22:25;1.90;;;0.70;;
1699;SDS011;847;48.058;7.810;2023-04-12T14:24:52;1.30;;;0.73;;
1699;SDS011;847;48.058;7.810;2023-04-12T14:27:19;1.70;;;0.70;;
1699;SDS011;847;48.058;7.810;2023-04-12T14:29:47;1.67;;;0.80;;
1699;SDS011;847;48.058;7.810;2023-04-12T14:32:14;1.17;;;0.67;;
1699;SDS011;847;48.058;7.810;2023-04-12T14:34:41;1.50;;;0.80;;
1699;SDS011;847;48.058;7.810;2023-04-12T14:37:08;4.70;;;0.93;;
1699;SDS011;847;48.058;7.810;2023-04-12T14:39:35;1.90;;;0.80;;
1699;SDS011;847;48.058;7.810;2023-04-12T14:42:02;1.53;;;0.97;;
1699;SDS011;847;48.058;7.810;2023-04-12T14:44:30;0.80;;;0.80;;
1699;SDS011;847;48.058;7.810;2023-04-12T14:46:58;1.07;;;0.50;;
1699;SDS011;847;48.058;7.810;2023-04-12T14:49:26;2.77;;;0.77;;
1699;SDS011;847;48.058;7.810;2023-04-12T14:51:55;2.83;;;0.80;;
1699;SDS011;847;48.058;7.810;2023-04-12T14:54:22;1.07;;;0.60;;
1699;SDS011;847;48.058;7.810;2023-04-12T14:56:48;1.10;;;0.67;;
1699;SDS011;847;48.058;7.810;2023-04-12T14:59:15;0.70;;;0.50;;
1699;SDS011;847;48.058;7.810;2023-04-12T15:01:42;1.13;;;0.50;;
1699;SDS011;847;48.058;7.810;2023-04-12T15:04:10;1.67;;;0.40;;
1699;SDS011;847;48.058;7.810;2023-04-12T15:06:36;1.00;;;0.43;;
1699;SDS011;847;48.058;7.810;2023-04-12T15:09:06;2.40;;;0.70;;
1699;SDS011;847;48.058;7.810;2023-04-12T15:11:34;0.80;;;0.60;;
1699;SDS011;847;48.058;7.810;2023-04-12T15:14:02;0.60;;;0.50;;
1699;SDS011;847;48.058;7.810;2023-04-12T15:16:30;0.80;;;0.63;;
1699;SDS011;847;48.058;7.810;2023-04-12T15:18:58;0.90;;;0.60;;
1699;SDS011;847;48.058;7.810;2023-04-12T15:21:27;1.77;;;0.70;;
1699;SDS011;847;48.058;7.810;2023-04-12T15:23:54;1.73;;;0.83;;
1699;SDS011;847;48.058;7.810;2023-04-12T15:26:22;2.43;;;1.00;;
1699;SDS011;847;48.058;7.810;2023-04-12T15:28:48;1.03;;;0.70;;
1699;SDS011;847;48.058;7.810;2023-04-12T15:31:15;1.70;;;1.00;;
1699;SDS011;847;48.058;7.810;2023-04-12T15:33:42;1.23;;;0.70;;
1699;SDS011;847;48.058;7.810;2023-04-12T15:36:10;1.10;;;0.80;;
1699;SDS011;847;48.058;7.810;2023-04-12T15:38:42;4.00;;;1.30;;
1699;SDS011;847;48.058;7.810;2023-04-12T15:41:09;2.07;;;1.00;;
1699;SDS011;847;48.058;7.810;2023-04-12T15:43:36;1.20;;;0.83;;
1699;SDS011;847;48.058;7.810;2023-04-12T15:46:02;1.20;;;0.97;;
1699;SDS011;847;48.058;7.810;2023-04-12T15:48:30;2.33;;;1.00;;
1699;SDS011;847;48.058;7.810;2023-04-12T15:50:58;1.13;;;1.00;;
1699;SDS011;847;48.058;7.810;2023-04-12T15:53:25;2.53;;;2.33;;
1699;SDS011;847;48.058;7.810;2023-04-12T15:55:56;1.83;;;1.43;;